Time;durP1;ratioP1;P1;durP2;ratioP2;P2;SDS_P1;SDS_P2;PMS_P1;PMS_P2;Temp;Humidity;BMP_temperature;BMP_pressure;BME280_temperature;BME280_humidity;BME280_pressure;Samples;Min_cycle;Max_cycle;Signal;HPM_P1;HPM_P2
2021/11/26 00:01:01;;;;;;;;;;;5.60;99.90;;;;;;5091278;28;19952;-78
2021/11/26 00:03:28;;;;;;;;;;;5.60;99.90;;;;;;5090296;28;19931;-79
2021/11/26 00:05:54;;;;;;;;;;;5.50;99.90;;;;;;5091670;28;19931;-78
2021/11/26 00:08:22;;;;;;;;;;;5.50;99.90;;;;;;5091927;28;19950;-78
2021/11/26 00:10:49;;;;;;;;;;;5.40;99.90;;;;;;5089499;28;19962;-78
2021/11/26 00:13:16;;;;;;;;;;;5.90;99.90;;;;;;5088276;28;19924;-79
2021/11/26 00:15:44;;;;;;;;;;;5.60;99.90;;;;;;5086932;28;19924;-81
2021/11/26 00:18:17;;;;;;;;;;;5.50;99.90;;;;;;5097784;28;19912;-80
2021/11/26 00:20:43;;;;;;;;;;;5.50;99.90;;;;;;5090388;28;19984;-82
2021/11/26 00:23:12;;;;;;;;;;;5.50;99.90;;;;;;5083427;28;19964;-79
2021/11/26 00:25:40;;;;;;;;;;;5.50;99.90;;;;;;5096159;28;19928;-82
2021/11/26 00:28:06;;;;;;;;;;;5.50;99.90;;;;;;5094483;28;19925;-82
2021/11/26 00:30:33;;;;;;;;;;;5.50;99.90;;;;;;5108561;22;19960;-79
2021/11/26 00:33:01;;;;;;;;;;;5.50;99.90;;;;;;5076181;28;20027;-79
2021/11/26 00:35:27;;;;;;;;;;;5.50;99.90;;;;;;5076523;28;19925;-79
2021/11/26 00:37:54;;;;;;;;;;;5.50;99.90;;;;;;5082973;28;19931;-77
2021/11/26 00:40:21;;;;;;;;;;;5.50;99.90;;;;;;5085363;28;19952;-78
2021/11/26 00:42:49;;;;;;;;;;;5.40;99.90;;;;;;5085857;28;20030;-78
2021/11/26 00:45:16;;;;;;;;;;;5.50;99.90;;;;;;5085529;28;19924;-78
2021/11/26 00:47:43;;;;;;;;;;;5.50;99.90;;;;;;5085848;28;20510;-78
2021/11/26 00:50:11;;;;;;;;;;;5.40;99.90;;;;;;5090420;28;19961;-78
2021/11/26 00:52:38;;;;;;;;;;;5.50;99.90;;;;;;5088337;28;19963;-78
2021/11/26 00:55:05;;;;;;;;;;;5.50;99.90;;;;;;5088018;28;20000;-78
2021/11/26 00:57:32;;;;;;;;;;;5.50;99.90;;;;;;5079191;28;20024;-79
2021/11/26 01:00:00;;;;;;;;;;;5.50;99.90;;;;;;5079366;28;19964;-79
2021/11/26 01:02:27;;;;;;;;;;;5.40;99.90;;;;;;5079474;28;20012;-80
2021/11/26 01:04:53;;;;;;;;;;;5.40;99.90;;;;;;5079214;28;20023;-79
2021/11/26 01:07:20;;;;;;;;;;;5.40;99.90;;;;;;5080236;28;19959;-78
2021/11/26 01:09:47;;;;;;;;;;;5.40;99.90;;;;;;5085131;28;19992;-78
2021/11/26 01:12:13;;;;;;;;;;;5.40;99.90;;;;;;5090306;28;19928;-78
2021/11/26 01:14:40;;;;;;;;;;;5.40;99.90;;;;;;5089744;28;20010;-78
2021/11/26 01:17:08;;;;;;;;;;;5.40;99.90;;;;;;5087167;28;19935;-78
2021/11/26 01:19:35;;;;;;;;;;;5.40;99.90;;;;;;5083956;28;20038;-79
2021/11/26 01:22:01;;;;;;;;;;;5.40;99.90;;;;;;5078913;28;20252;-78
2021/11/26 01:24:28;;;;;;;;;;;5.40;99.90;;;;;;5078452;28;19959;-80
2021/11/26 01:26:55;;;;;;;;;;;5.40;99.90;;;;;;5078651;28;20016;-79
2021/11/26 01:29:22;;;;;;;;;;;5.30;99.90;;;;;;5080056;28;19988;-78
2021/11/26 01:31:48;;;;;;;;;;;5.40;99.90;;;;;;5081439;28;19924;-79
2021/11/26 01:34:16;;;;;;;;;;;5.40;99.90;;;;;;5080080;28;19967;-79
2021/11/26 01:36:46;;;;;;;;;;;5.40;99.90;;;;;;5085792;28;19931;-78
2021/11/26 01:39:13;;;;;;;;;;;5.40;99.90;;;;;;5088408;28;19924;-78
2021/11/26 01:41:42;;;;;;;;;;;5.40;99.90;;;;;;5087499;28;19992;-78
2021/11/26 01:44:09;;;;;;;;;;;5.40;99.90;;;;;;5079372;28;20023;-79
2021/11/26 01:46:38;;;;;;;;;;;5.50;99.90;;;;;;5081211;28;19962;-78
2021/11/26 01:49:05;;;;;;;;;;;5.10;99.90;;;;;;5091506;28;19925;-77
2021/11/26 01:51:33;;;;;;;;;;;5.40;99.90;;;;;;5088486;28;19963;-79
2021/11/26 01:53:59;;;;;;;;;;;5.40;99.90;;;;;;5081739;28;19963;-80
2021/11/26 01:56:26;;;;;;;;;;;5.40;99.90;;;;;;5079187;28;20016;-80
2021/11/26 01:58:53;;;;;;;;;;;5.40;99.90;;;;;;5078078;28;20337;-80
2021/11/26 02:01:20;;;;;;;;;;;5.50;99.90;;;;;;5076389;28;19931;-80
2021/11/26 02:03:46;;;;;;;;;;;5.50;99.90;;;;;;5079658;28;19925;-78
2021/11/26 02:06:13;;;;;;;;;;;5.50;99.90;;;;;;5085667;28;20165;-78
2021/11/26 02:08:41;;;;;;;;;;;5.50;99.90;;;;;;5089249;28;19924;-79
2021/11/26 02:11:08;;;;;;;;;;;5.40;99.90;;;;;;5082995;28;19925;-79
2021/11/26 02:13:35;;;;;;;;;;;5.30;99.90;;;;;;5079102;28;19931;-79
2021/11/26 02:16:04;;;;;;;;;;;5.30;99.90;;;;;;5077584;28;19963;-80
2021/11/26 02:18:31;;;;;;;;;;;5.30;99.90;;;;;;5077878;28;20035;-78
2021/11/26 02:20:59;;;;;;;;;;;5.30;99.90;;;;;;5077155;28;20003;-79
2021/11/26 02:23:25;;;;;;;;;;;5.20;99.90;;;;;;5085279;28;19946;-78
2021/11/26 02:25:52;;;;;;;;;;;5.20;99.90;;;;;;5089198;28;20078;-77
2021/11/26 02:28:19;;;;;;;;;;;5.20;99.90;;;;;;5089418;28;20382;-78
2021/11/26 02:30:46;;;;;;;;;;;5.20;99.90;;;;;;5078443;28;20387;-78
2021/11/26 02:33:14;;;;;;;;;;;5.20;99.90;;;;;;5083835;28;20007;-78
2021/11/26 02:35:41;;;;;;;;;;;5.30;99.90;;;;;;5089525;28;19928;-78
2021/11/26 02:38:10;;;;;;;;;;;5.30;99.90;;;;;;5089720;28;19925;-77
2021/11/26 02:40:38;;;;;;;;;;;5.30;99.90;;;;;;5088953;28;19980;-78
2021/11/26 02:43:05;;;;;;;;;;;5.30;99.90;;;;;;5086605;28;19924;-78
2021/11/26 02:45:32;;;;;;;;;;;5.30;99.90;;;;;;5078389;28;20279;-79
2021/11/26 02:47:59;;;;;;;;;;;5.30;99.90;;;;;;5077390;28;20341;-79
2021/11/26 02:50:26;;;;;;;;;;;5.30;99.90;;;;;;5076925;28;19930;-78
2021/11/26 02:52:53;;;;;;;;;;;5.30;99.90;;;;;;5082180;28;19931;-78
2021/11/26 02:55:22;;;;;;;;;;;5.30;99.90;;;;;;5083360;28;19960;-78
2021/11/26 02:57:49;;;;;;;;;;;5.30;99.90;;;;;;5083375;28;20354;-78
2021/11/26 03:00:19;;;;;;;;;;;5.30;99.90;;;;;;5079878;28;19931;-79
2021/11/26 03:02:46;;;;;;;;;;;5.20;99.90;;;;;;5077556;28;20012;-80
2021/11/26 03:05:13;;;;;;;;;;;5.20;99.90;;;;;;5077522;28;19924;-80
2021/11/26 03:07:39;;;;;;;;;;;5.20;99.90;;;;;;5077728;28;20395;-80
2021/11/26 03:10:07;;;;;;;;;;;5.20;99.90;;;;;;5076865;28;19930;-79
2021/11/26 03:12:35;;;;;;;;;;;5.20;99.90;;;;;;5076094;28;19967;-80
2021/11/26 03:15:03;;;;;;;;;;;4.90;99.90;;;;;;5077230;28;20427;-80
2021/11/26 03:17:30;;;;;;;;;;;5.10;99.90;;;;;;5076472;28;19974;-79
2021/11/26 03:19:56;;;;;;;;;;;5.20;99.90;;;;;;5076783;28;20365;-79
2021/11/26 03:22:23;;;;;;;;;;;5.20;99.90;;;;;;5076561;28;19924;-79
2021/11/26 03:24:50;;;;;;;;;;;5.20;99.90;;;;;;5078970;28;19925;-78
2021/11/26 03:27:16;;;;;;;;;;;5.10;99.90;;;;;;5086273;28;19924;-78
2021/11/26 03:29:44;;;;;;;;;;;5.20;99.90;;;;;;5088240;28;19924;-79
2021/11/26 03:32:11;;;;;;;;;;;5.20;99.90;;;;;;5078457;28;19978;-78
2021/11/26 03:34:38;;;;;;;;;;;5.20;99.90;;;;;;5078028;28;19947;-80
2021/11/26 03:37:04;;;;;;;;;;;5.20;99.90;;;;;;5079562;28;20378;-80
2021/11/26 03:39:31;;;;;;;;;;;5.20;99.90;;;;;;5081467;28;19981;-80
2021/11/26 03:41:58;;;;;;;;;;;5.20;99.90;;;;;;5081199;28;19924;-79
2021/11/26 03:44:25;;;;;;;;;;;5.10;99.90;;;;;;5083913;28;19935;-80
2021/11/26 03:46:52;;;;;;;;;;;5.20;99.90;;;;;;5084581;28;19924;-80
2021/11/26 03:49:19;;;;;;;;;;;5.20;99.90;;;;;;5086811;28;20011;-79
2021/11/26 03:51:46;;;;;;;;;;;5.20;99.90;;;;;;5087892;28;19955;-78
2021/11/26 03:54:13;;;;;;;;;;;5.20;99.90;;;;;;5085654;28;19924;-79
2021/11/26 03:56:39;;;;;;;;;;;4.90;99.90;;;;;;5077005;28;19924;-79
2021/11/26 03:59:06;;;;;;;;;;;5.20;99.90;;;;;;5076653;28;19932;-79
2021/11/26 04:01:33;;;;;;;;;;;5.30;99.90;;;;;;5076339;28;19924;-79
2021/11/26 04:04:01;;;;;;;;;;;5.60;99.90;;;;;;5075376;28;20011;-80
2021/11/26 04:06:28;;;;;;;;;;;5.20;99.90;;;;;;5076434;28;19930;-79
2021/11/26 04:08:54;;;;;;;;;;;5.20;99.90;;;;;;5076806;28;19931;-79
2021/11/26 04:11:21;;;;;;;;;;;5.20;99.90;;;;;;5086671;28;19971;-78
2021/11/26 04:13:48;;;;;;;;;;;5.30;99.90;;;;;;5084036;28;19924;-78
2021/11/26 04:16:16;;;;;;;;;;;5.20;99.90;;;;;;5083565;28;19929;-79
2021/11/26 04:18:43;;;;;;;;;;;5.20;99.90;;;;;;5079805;28;19924;-79
2021/11/26 04:21:13;;;;;;;;;;;5.20;99.90;;;;;;5076687;28;20019;-78
2021/11/26 04:23:39;;;;;;;;;;;5.30;99.90;;;;;;5076850;28;20374;-79
2021/11/26 04:26:06;;;;;;;;;;;5.30;99.90;;;;;;5079719;28;20000;-79
2021/11/26 04:28:33;;;;;;;;;;;5.30;99.90;;;;;;5081071;28;19928;-78
2021/11/26 04:31:01;;;;;;;;;;;5.30;99.90;;;;;;5081603;28;20352;-80
2021/11/26 04:33:28;;;;;;;;;;;5.30;99.90;;;;;;5080347;28;19990;-79
2021/11/26 04:35:55;;;;;;;;;;;5.90;99.90;;;;;;5080216;28;19955;-79
2021/11/26 04:38:23;;;;;;;;;;;5.40;99.90;;;;;;5080282;28;20281;-79
2021/11/26 04:40:50;;;;;;;;;;;5.40;99.90;;;;;;5080317;28;19972;-79
2021/11/26 04:43:16;;;;;;;;;;;5.30;99.90;;;;;;5080638;28;19925;-79
2021/11/26 04:45:43;;;;;;;;;;;5.30;99.90;;;;;;5082661;28;19956;-79
2021/11/26 04:48:10;;;;;;;;;;;5.20;99.90;;;;;;5082098;28;19925;-79
2021/11/26 04:50:37;;;;;;;;;;;5.20;99.90;;;;;;5081968;28;19930;-79
2021/11/26 04:53:03;;;;;;;;;;;5.20;99.90;;;;;;5081178;28;20010;-79
2021/11/26 04:55:31;;;;;;;;;;;5.40;99.90;;;;;;5081430;28;20013;-79
2021/11/26 04:57:58;;;;;;;;;;;5.20;99.90;;;;;;5084726;28;19931;-79
2021/11/26 05:00:25;;;;;;;;;;;5.20;99.90;;;;;;5082671;28;19971;-80
2021/11/26 05:02:52;;;;;;;;;;;5.30;99.90;;;;;;5080457;28;19935;-79
2021/11/26 05:05:18;;;;;;;;;;;5.30;99.90;;;;;;5080921;28;19924;-79
2021/11/26 05:07:46;;;;;;;;;;;5.20;99.90;;;;;;5081977;28;19956;-78
2021/11/26 05:10:13;;;;;;;;;;;5.20;99.90;;;;;;5085002;28;19924;-79
2021/11/26 05:12:45;;;;;;;;;;;5.20;99.90;;;;;;5088987;28;19925;-78
2021/11/26 05:15:12;;;;;;;;;;;5.30;99.90;;;;;;5090725;28;19975;-78
2021/11/26 05:17:39;;;;;;;;;;;5.30;99.90;;;;;;5092108;28;19924;-77
2021/11/26 05:20:06;;;;;;;;;;;5.30;99.90;;;;;;5090201;28;19928;-78
2021/11/26 05:22:32;;;;;;;;;;;5.30;99.90;;;;;;5089128;28;19924;-77
2021/11/26 05:24:59;;;;;;;;;;;5.30;99.90;;;;;;5092316;28;19924;-78
2021/11/26 05:27:27;;;;;;;;;;;5.30;99.90;;;;;;5091594;28;19924;-77
2021/11/26 05:29:55;;;;;;;;;;;5.40;99.90;;;;;;5090192;28;19924;-77
2021/11/26 05:32:22;;;;;;;;;;;5.30;99.90;;;;;;5081572;28;19924;-79
2021/11/26 05:34:48;;;;;;;;;;;5.30;99.90;;;;;;5078756;28;19924;-79
2021/11/26 05:37:15;;;;;;;;;;;5.30;99.90;;;;;;5078812;28;19968;-79
2021/11/26 05:39:42;;;;;;;;;;;5.30;99.90;;;;;;5079369;28;19925;-79
2021/11/26 05:42:08;;;;;;;;;;;5.20;99.90;;;;;;5078787;28;19967;-78
2021/11/26 05:44:35;;;;;;;;;;;5.20;99.90;;;;;;5078343;28;19928;-80
2021/11/26 05:47:03;;;;;;;;;;;5.30;99.90;;;;;;5078809;28;20397;-79
2021/11/26 05:49:30;;;;;;;;;;;5.30;99.90;;;;;;5078899;28;20038;-78
2021/11/26 05:51:57;;;;;;;;;;;5.20;99.90;;;;;;5078905;28;20019;-79
2021/11/26 05:54:24;;;;;;;;;;;5.30;99.90;;;;;;5078703;28;19970;-79
2021/11/26 05:56:51;;;;;;;;;;;5.20;99.90;;;;;;5079072;28;20391;-80
2021/11/26 05:59:17;;;;;;;;;;;5.30;99.90;;;;;;5086140;28;20328;-80
2021/11/26 06:01:44;;;;;;;;;;;5.30;99.90;;;;;;5091227;28;19963;-80
2021/11/26 06:04:12;;;;;;;;;;;5.30;99.90;;;;;;5080753;28;19946;-80
2021/11/26 06:06:39;;;;;;;;;;;5.30;99.90;;;;;;5082202;28;19960;-80
2021/11/26 06:09:05;;;;;;;;;;;5.30;99.90;;;;;;5078861;28;20019;-80
2021/11/26 06:11:32;;;;;;;;;;;5.40;99.90;;;;;;5079905;28;19924;-80
2021/11/26 06:13:59;;;;;;;;;;;5.30;99.90;;;;;;5079523;28;19947;-80
2021/11/26 06:16:26;;;;;;;;;;;5.10;99.90;;;;;;5081876;28;19964;-79
2021/11/26 06:18:53;;;;;;;;;;;5.30;99.90;;;;;;5091618;28;19924;-79
2021/11/26 06:21:21;;;;;;;;;;;5.20;99.90;;;;;;5089616;28;19924;-78
2021/11/26 06:23:48;;;;;;;;;;;5.20;99.90;;;;;;5089916;28;19924;-78
2021/11/26 06:26:14;;;;;;;;;;;5.30;99.90;;;;;;5087836;28;19924;-79
2021/11/26 06:28:41;;;;;;;;;;;5.30;99.90;;;;;;5078418;28;19931;-78
2021/11/26 06:31:08;;;;;;;;;;;5.30;99.90;;;;;;5078593;28;19978;-80
2021/11/26 06:33:34;;;;;;;;;;;5.30;99.90;;;;;;5077662;28;19979;-80
2021/11/26 06:36:01;;;;;;;;;;;5.30;99.90;;;;;;5078735;28;19931;-78
2021/11/26 06:38:29;;;;;;;;;;;5.40;99.90;;;;;;5081528;28;19989;-79
2021/11/26 06:40:56;;;;;;;;;;;5.40;99.90;;;;;;5079978;28;20022;-79
2021/11/26 06:43:23;;;;;;;;;;;5.40;99.90;;;;;;5078627;28;20034;-80
2021/11/26 06:45:49;;;;;;;;;;;5.40;99.90;;;;;;5078062;28;19975;-79
2021/11/26 06:48:16;;;;;;;;;;;5.40;99.90;;;;;;5077586;28;20406;-80
2021/11/26 06:50:42;;;;;;;;;;;5.40;99.90;;;;;;5078202;28;20425;-80
2021/11/26 06:53:09;;;;;;;;;;;5.40;99.90;;;;;;5078681;28;19991;-79
2021/11/26 06:55:37;;;;;;;;;;;5.40;99.90;;;;;;5077748;28;19930;-79
2021/11/26 06:58:04;;;;;;;;;;;5.20;99.90;;;;;;5077523;28;19924;-79
2021/11/26 07:00:30;;;;;;;;;;;5.30;99.90;;;;;;5080036;28;19925;-78
2021/11/26 07:02:57;;;;;;;;;;;5.30;99.90;;;;;;5082439;28;19967;-79
2021/11/26 07:05:24;;;;;;;;;;;5.30;99.90;;;;;;5081346;28;19931;-79
2021/11/26 07:07:50;;;;;;;;;;;5.40;99.90;;;;;;5079467;28;19924;-79
2021/11/26 07:10:18;;;;;;;;;;;5.40;99.90;;;;;;5079790;28;19961;-81
2021/11/26 07:12:46;;;;;;;;;;;5.40;99.90;;;;;;5079341;28;20016;-79
2021/11/26 07:15:14;;;;;;;;;;;5.50;99.90;;;;;;5078555;28;20011;-79
2021/11/26 07:17:40;;;;;;;;;;;5.30;99.90;;;;;;5077688;28;19971;-80
2021/11/26 07:20:08;;;;;;;;;;;5.30;99.90;;;;;;5077146;28;19924;-80
2021/11/26 07:22:34;;;;;;;;;;;5.40;99.90;;;;;;5076448;28;19925;-80
2021/11/26 07:25:01;;;;;;;;;;;5.40;99.90;;;;;;5076851;28;20358;-79
2021/11/26 07:27:28;;;;;;;;;;;5.40;99.90;;;;;;5077340;28;20019;-80
2021/11/26 07:29:56;;;;;;;;;;;5.30;99.90;;;;;;5083270;28;19978;-79
2021/11/26 07:32:23;;;;;;;;;;;5.40;99.90;;;;;;5088149;28;19930;-77
2021/11/26 07:34:50;;;;;;;;;;;5.30;99.90;;;;;;5084849;28;20387;-80
2021/11/26 07:37:17;;;;;;;;;;;5.30;99.90;;;;;;5076641;28;20386;-79
2021/11/26 07:39:44;;;;;;;;;;;5.30;99.90;;;;;;5076742;28;19951;-79
2021/11/26 07:42:11;;;;;;;;;;;5.40;99.90;;;;;;5076027;28;20304;-78
2021/11/26 07:44:39;;;;;;;;;;;5.40;99.90;;;;;;5075956;28;19930;-79
2021/11/26 07:47:08;;;;;;;;;;;5.60;99.90;;;;;;5082458;28;19931;-78
2021/11/26 07:49:35;;;;;;;;;;;5.40;99.90;;;;;;5087604;28;19946;-78
2021/11/26 07:52:03;;;;;;;;;;;5.50;99.90;;;;;;5083502;28;20020;-79
2021/11/26 07:54:29;;;;;;;;;;;5.30;99.90;;;;;;5076462;28;19924;-80
2021/11/26 07:56:56;;;;;;;;;;;5.80;99.90;;;;;;5077070;28;19972;-81
2021/11/26 07:59:23;;;;;;;;;;;5.50;99.90;;;;;;5076182;28;20481;-80
2021/11/26 08:01:50;;;;;;;;;;;5.50;99.90;;;;;;5076731;28;19978;-80
2021/11/26 08:04:18;;;;;;;;;;;5.50;99.90;;;;;;5076596;28;19929;-80
2021/11/26 08:06:46;;;;;;;;;;;5.50;99.90;;;;;;5075758;28;19932;-79
2021/11/26 08:09:13;;;;;;;;;;;5.60;99.90;;;;;;5075969;28;19924;-80
2021/11/26 08:11:40;;;;;;;;;;;5.70;99.90;;;;;;5075807;28;19991;-79
2021/11/26 08:14:07;;;;;;;;;;;5.80;99.90;;;;;;5084387;28;19963;-79
2021/11/26 08:16:34;;;;;;;;;;;5.70;99.90;;;;;;5088534;28;20003;-80
2021/11/26 08:19:00;;;;;;;;;;;5.80;99.90;;;;;;5081701;28;19928;-80
2021/11/26 08:21:28;;;;;;;;;;;5.80;99.90;;;;;;5085711;28;19956;-80
2021/11/26 08:23:55;;;;;;;;;;;5.80;99.90;;;;;;5084442;28;19925;-79
2021/11/26 08:26:22;;;;;;;;;;;5.80;99.90;;;;;;5084250;28;20363;-79
2021/11/26 08:28:48;;;;;;;;;;;5.90;99.90;;;;;;5082185;28;19924;-79
2021/11/26 08:31:15;;;;;;;;;;;5.80;99.90;;;;;;5085643;28;19966;-79
2021/11/26 08:33:42;;;;;;;;;;;5.90;99.90;;;;;;5082978;28;19928;-78
2021/11/26 08:36:08;;;;;;;;;;;5.90;99.90;;;;;;5085750;28;19947;-78
2021/11/26 08:38:36;;;;;;;;;;;5.90;99.90;;;;;;5076937;28;20011;-79
2021/11/26 08:41:05;;;;;;;;;;;6.00;99.90;;;;;;5077206;28;19925;-80
2021/11/26 08:43:31;;;;;;;;;;;6.90;99.90;;;;;;5076656;28;19924;-80
2021/11/26 08:45:58;;;;;;;;;;;6.00;99.90;;;;;;5075380;28;19971;-79
2021/11/26 08:48:25;;;;;;;;;;;6.10;99.90;;;;;;5075502;28;19987;-79
2021/11/26 08:50:51;;;;;;;;;;;6.10;99.90;;;;;;5085093;28;19998;-78
2021/11/26 08:53:19;;;;;;;;;;;6.10;99.90;;;;;;5088069;28;19924;-79
2021/11/26 08:55:50;;;;;;;;;;;4.80;99.90;;;;;;5085573;28;19978;-79
2021/11/26 08:58:18;;;;;;;;;;;6.10;99.90;;;;;;5077213;28;19928;-79
2021/11/26 09:00:45;;;;;;;;;;;6.20;99.90;;;;;;5076668;28;19924;-79
2021/11/26 09:03:11;;;;;;;;;;;6.20;99.90;;;;;;5075650;28;19950;-79
2021/11/26 09:05:38;;;;;;;;;;;6.20;99.90;;;;;;5075147;28;19924;-79
2021/11/26 09:08:05;;;;;;;;;;;6.20;99.90;;;;;;5075312;28;19924;-79
2021/11/26 09:10:32;;;;;;;;;;;6.10;99.90;;;;;;5077699;28;20310;-79
2021/11/26 09:13:01;;;;;;;;;;;6.10;99.90;;;;;;5081327;28;20355;-79
2021/11/26 09:15:28;;;;;;;;;;;6.20;99.90;;;;;;5082082;28;20410;-79
2021/11/26 09:17:55;;;;;;;;;;;6.30;99.90;;;;;;5090259;28;19950;-79
2021/11/26 09:20:22;;;;;;;;;;;6.30;99.90;;;;;;5090431;28;19963;-78
2021/11/26 09:22:49;;;;;;;;;;;6.30;99.90;;;;;;5089650;28;19924;-79
2021/11/26 09:25:16;;;;;;;;;;;6.30;99.90;;;;;;5088825;28;19925;-78
2021/11/26 09:27:43;;;;;;;;;;;6.30;99.90;;;;;;5089854;28;19924;-78
2021/11/26 09:30:12;;;;;;;;;;;6.40;99.90;;;;;;5088559;28;19980;-79
2021/11/26 09:32:39;;;;;;;;;;;6.50;99.90;;;;;;5089055;28;20398;-78
2021/11/26 09:35:06;;;;;;;;;;;6.60;99.90;;;;;;5094665;28;19924;-79
2021/11/26 09:37:33;;;;;;;;;;;6.60;99.90;;;;;;5088181;28;19925;-79
2021/11/26 09:40:00;;;;;;;;;;;6.70;99.90;;;;;;5082345;28;20023;-80
2021/11/26 09:42:27;;;;;;;;;;;6.70;99.90;;;;;;5080772;28;20015;-80
2021/11/26 09:44:56;;;;;;;;;;;6.70;99.90;;;;;;5079496;28;19990;-79
2021/11/26 09:47:25;;;;;;;;;;;6.70;99.90;;;;;;5080398;28;19924;-80
2021/11/26 09:49:51;;;;;;;;;;;6.70;99.90;;;;;;5081752;28;20015;-79
2021/11/26 09:52:18;;;;;;;;;;;6.70;99.90;;;;;;5079698;28;19928;-79
2021/11/26 09:54:46;;;;;;;;;;;6.60;99.90;;;;;;5078953;28;19931;-80
2021/11/26 09:57:13;;;;;;;;;;;6.80;99.90;;;;;;5080139;28;19932;-79
2021/11/26 09:59:42;;;;;;;;;;;6.70;99.90;;;;;;5080979;28;20019;-80
2021/11/26 10:02:09;;;;;;;;;;;6.70;99.90;;;;;;5083103;28;19928;-81
2021/11/26 10:04:37;;;;;;;;;;;6.70;99.90;;;;;;5084177;28;19924;-80
2021/11/26 10:07:05;;;;;;;;;;;6.60;99.90;;;;;;5084807;28;20331;-81
2021/11/26 10:09:33;;;;;;;;;;;6.60;99.90;;;;;;5081676;28;20305;-79
2021/11/26 10:12:03;;;;;;;;;;;6.60;99.90;;;;;;5080856;28;19929;-79
2021/11/26 10:14:32;;;;;;;;;;;6.50;99.90;;;;;;5080956;28;19947;-79
2021/11/26 10:17:06;;;;;;;;;;;6.40;99.90;;;;;;5078924;28;19935;-80
2021/11/26 10:19:34;;;;;;;;;;;6.30;99.90;;;;;;5079929;28;19924;-79
2021/11/26 10:22:12;;;;;;;;;;;6.40;99.90;;;;;;5078201;28;19928;-80
2021/11/26 10:24:39;;;;;;;;;;;6.50;99.90;;;;;;5078770;28;20019;-80
2021/11/26 10:27:05;;;;;;;;;;;6.50;99.90;;;;;;5078483;28;19925;-80
2021/11/26 10:29:33;;;;;;;;;;;6.40;99.90;;;;;;5079179;28;19925;-79
2021/11/26 10:32:04;;;;;;;;;;;6.30;99.90;;;;;;5087277;28;19928;-81
2021/11/26 10:34:31;;;;;;;;;;;6.40;99.90;;;;;;5084934;28;19994;-81
2021/11/26 10:36:58;;;;;;;;;;;6.50;99.90;;;;;;5078616;28;19928;-80
2021/11/26 10:39:27;;;;;;;;;;;6.40;99.90;;;;;;5079304;28;19924;-80
2021/11/26 10:41:55;;;;;;;;;;;6.40;99.90;;;;;;5087364;28;19925;-78
2021/11/26 10:44:36;;;;;;;;;;;6.30;99.90;;;;;;5084426;28;19924;-77
2021/11/26 10:47:09;;;;;;;;;;;6.40;99.90;;;;;;5087019;28;19925;-78
2021/11/26 10:58:13;;;;;;;;;;;6.50;99.90;;;;;;5082219;28;19935;-80
2021/11/26 11:00:40;;;;;;;;;;;6.50;99.90;;;;;;5082108;28;20401;-78
2021/11/26 11:03:07;;;;;;;;;;;6.40;99.90;;;;;;5079779;28;19950;-79
2021/11/26 11:05:37;;;;;;;;;;;6.50;99.90;;;;;;5081051;28;19930;-79
2021/11/26 11:08:05;;;;;;;;;;;6.50;99.90;;;;;;5084380;28;20318;-78
2021/11/26 11:10:34;;;;;;;;;;;6.70;99.90;;;;;;5086542;28;20298;-80
2021/11/26 11:13:08;;;;;;;;;;;6.70;99.90;;;;;;5084251;28;19925;-78
2021/11/26 11:15:35;;;;;;;;;;;6.50;99.90;;;;;;5095996;28;19931;-79
2021/11/26 11:18:02;;;;;;;;;;;6.40;99.90;;;;;;5095468;28;19964;-78
2021/11/26 11:20:29;;;;;;;;;;;6.50;99.90;;;;;;5081649;28;19934;-81
2021/11/26 11:22:55;;;;;;;;;;;6.60;99.90;;;;;;5079000;28;19931;-80
2021/11/26 11:25:27;;;;;;;;;;;6.70;99.90;;;;;;5082567;28;19924;-80
2021/11/26 11:27:56;;;;;;;;;;;6.50;99.90;;;;;;5082476;28;19978;-79
2021/11/26 11:30:24;;;;;;;;;;;6.70;99.90;;;;;;5084462;28;20020;-80
2021/11/26 11:32:50;;;;;;;;;;;6.70;99.90;;;;;;5081743;28;19925;-80
2021/11/26 11:35:17;;;;;;;;;;;6.70;99.90;;;;;;5080393;28;19931;-79
2021/11/26 11:37:44;;;;;;;;;;;6.70;99.90;;;;;;5079112;28;19930;-82
2021/11/26 11:40:11;;;;;;;;;;;6.60;99.90;;;;;;5078315;28;19972;-80
2021/11/26 11:42:39;;;;;;;;;;;6.80;99.90;;;;;;5078097;28;19925;-80
2021/11/26 11:45:10;;;;;;;;;;;6.80;99.90;;;;;;5077713;28;19964;-79
2021/11/26 11:47:42;;;;;;;;;;;6.80;99.90;;;;;;5077660;28;19925;-81
2021/11/26 11:50:10;;;;;;;;;;;6.70;99.90;;;;;;5082445;28;19946;-79
2021/11/26 11:52:44;;;;;;;;;;;6.70;99.90;;;;;;5081459;28;20020;-79
2021/11/26 11:55:18;;;;;;;;;;;6.70;99.90;;;;;;5084146;28;19928;-79
2021/11/26 11:57:45;;;;;;;;;;;6.70;99.90;;;;;;5078192;28;19925;-80
2021/11/26 12:00:16;;;;;;;;;;;6.60;99.90;;;;;;5078668;28;19932;-79
2021/11/26 12:02:43;;;;;;;;;;;6.60;99.90;;;;;;5078394;28;19924;-80
2021/11/26 12:05:19;;;;;;;;;;;6.50;99.90;;;;;;5078648;28;19971;-81
2021/11/26 12:07:45;;;;;;;;;;;6.50;99.90;;;;;;5079083;28;20323;-81
2021/11/26 12:10:15;;;;;;;;;;;6.40;99.90;;;;;;5078769;28;20394;-80
2021/11/26 12:12:45;;;;;;;;;;;6.40;99.90;;;;;;5078347;28;20015;-82
2021/11/26 12:15:22;;;;;;;;;;;6.40;99.90;;;;;;5077651;28;19956;-80
2021/11/26 12:17:56;;;;;;;;;;;6.30;99.90;;;;;;5078516;28;20291;-80
2021/11/26 12:20:25;;;;;;;;;;;6.20;99.90;;;;;;5086238;28;19924;-78
2021/11/26 12:22:55;;;;;;;;;;;6.20;99.90;;;;;;5088007;28;19935;-80
2021/11/26 12:25:31;;;;;;;;;;;6.10;99.90;;;;;;5091669;28;19925;-79
2021/11/26 12:27:59;;;;;;;;;;;6.10;99.90;;;;;;5088152;28;19924;-81
2021/11/26 12:30:27;;;;;;;;;;;6.00;99.90;;;;;;5077975;28;19971;-80
2021/11/26 12:32:54;;;;;;;;;;;6.00;99.90;;;;;;5103669;22;19924;-82
2021/11/26 12:35:21;;;;;;;;;;;6.10;99.90;;;;;;5079681;28;19971;-81
2021/11/26 12:37:53;;;;;;;;;;;6.10;99.90;;;;;;5080499;28;19947;-80
2021/11/26 12:40:23;;;;;;;;;;;6.10;99.90;;;;;;5080855;28;19988;-81
2021/11/26 12:42:57;;;;;;;;;;;6.20;99.90;;;;;;5087765;28;19947;-79
2021/11/26 12:45:24;;;;;;;;;;;6.20;99.90;;;;;;5092638;28;19983;-78
2021/11/26 12:47:57;;;;;;;;;;;6.20;99.90;;;;;;5094859;28;19988;-80
2021/11/26 12:53:10;;;;;;;;;;;6.20;99.90;;;;;;5093765;28;19927;-82
2021/11/26 12:55:37;;;;;;;;;;;6.20;99.90;;;;;;5085731;28;20369;-80
2021/11/26 12:58:04;;;;;;;;;;;6.10;99.90;;;;;;5082293;28;19925;-80
2021/11/26 13:00:32;;;;;;;;;;;6.10;99.90;;;;;;5083731;28;20239;-81
2021/11/26 13:03:07;;;;;;;;;;;6.10;99.90;;;;;;5089192;28;19928;-80
2021/11/26 13:05:34;;;;;;;;;;;6.50;99.90;;;;;;5093857;28;20410;-78
2021/11/26 13:08:01;;;;;;;;;;;6.10;99.90;;;;;;5090809;28;19931;-80
2021/11/26 13:10:28;;;;;;;;;;;6.00;99.90;;;;;;5089459;28;19924;-79
2021/11/26 13:12:56;;;;;;;;;;;5.90;99.90;;;;;;5090465;28;19928;-80
2021/11/26 13:15:24;;;;;;;;;;;5.90;99.90;;;;;;5088709;28;19958;-81
2021/11/26 13:17:53;;;;;;;;;;;5.90;99.90;;;;;;5092573;28;19925;-81
2021/11/26 13:20:23;;;;;;;;;;;5.90;99.90;;;;;;5091379;28;19962;-79
2021/11/26 13:22:53;;;;;;;;;;;5.90;99.90;;;;;;5086112;28;19924;-82
2021/11/26 13:25:21;;;;;;;;;;;5.90;99.90;;;;;;5090228;28;19932;-80
2021/11/26 13:27:55;;;;;;;;;;;6.00;99.90;;;;;;5100438;28;19925;-81
2021/11/26 13:30:24;;;;;;;;;;;5.90;99.90;;;;;;5089236;28;20378;-82
2021/11/26 13:33:02;;;;;;;;;;;5.90;99.90;;;;;;5091745;28;19925;-82
2021/11/26 13:35:30;;;;;;;;;;;5.90;99.90;;;;;;5100583;28;19924;-82
2021/11/26 13:37:58;;;;;;;;;;;5.90;99.90;;;;;;5087875;28;20040;-82
2021/11/26 13:40:34;;;;;;;;;;;5.90;99.90;;;;;;5084888;28;20052;-81
2021/11/26 13:43:02;;;;;;;;;;;5.90;99.90;;;;;;5083935;28;19931;-82
2021/11/26 13:45:33;;;;;;;;;;;5.90;99.90;;;;;;5083510;28;19960;-81
2021/11/26 13:48:00;;;;;;;;;;;5.50;99.90;;;;;;5083543;28;19924;-80
2021/11/26 13:50:27;;;;;;;;;;;5.90;99.90;;;;;;5084252;28;19929;-83
2021/11/26 13:52:55;;;;;;;;;;;5.80;99.90;;;;;;5083605;28;19950;-81
2021/11/26 13:55:23;;;;;;;;;;;5.70;99.90;;;;;;5084699;28;19925;-81
2021/11/26 13:57:50;;;;;;;;;;;5.70;99.90;;;;;;5084715;28;19925;-83
2021/11/26 14:00:18;;;;;;;;;;;5.70;99.90;;;;;;5084637;28;19924;-82
2021/11/26 14:02:45;;;;;;;;;;;5.70;99.90;;;;;;5085979;28;19955;-82
2021/11/26 14:05:12;;;;;;;;;;;5.70;99.90;;;;;;5085828;28;19924;-80
2021/11/26 14:07:39;;;;;;;;;;;5.70;99.90;;;;;;5084409;28;20007;-83
2021/11/26 14:10:08;;;;;;;;;;;5.70;99.90;;;;;;5084467;28;20450;-82
2021/11/26 14:12:35;;;;;;;;;;;5.60;99.90;;;;;;5085452;28;19947;-81
2021/11/26 14:15:01;;;;;;;;;;;5.50;99.90;;;;;;5087015;28;19931;-80
2021/11/26 14:17:29;;;;;;;;;;;5.50;99.90;;;;;;5087121;28;20314;-83
2021/11/26 14:19:57;;;;;;;;;;;5.50;99.90;;;;;;5087421;28;19928;-81
2021/11/26 14:22:25;;;;;;;;;;;5.50;99.90;;;;;;5087009;28;20019;-80
2021/11/26 14:24:54;;;;;;;;;;;5.50;99.90;;;;;;5087922;28;19947;-80
2021/11/26 14:27:30;;;;;;;;;;;5.40;99.90;;;;;;5088270;28;19924;-80
2021/11/26 14:29:58;;;;;;;;;;;5.40;99.90;;;;;;5086153;28;19928;-81
2021/11/26 14:32:26;;;;;;;;;;;5.40;99.90;;;;;;5084530;28;19967;-83
2021/11/26 14:35:02;;;;;;;;;;;5.40;99.90;;;;;;5084843;28;19925;-83
2021/11/26 14:37:29;;;;;;;;;;;5.30;99.90;;;;;;5083900;28;19932;-82
2021/11/26 14:39:56;;;;;;;;;;;5.30;99.90;;;;;;5083794;28;19925;-83
2021/11/26 14:42:28;;;;;;;;;;;5.30;99.90;;;;;;5082829;28;20015;-81
2021/11/26 14:44:57;;;;;;;;;;;5.30;99.90;;;;;;5085948;28;19954;-81